createdAt,value
2017-12-02T00:00:06.717Z,0
2017-12-02T00:01:07.030Z,0
2017-12-02T00:02:06.736Z,0
2017-12-02T00:03:06.249Z,0
2017-12-02T00:04:06.767Z,0
2017-12-02T00:05:06.531Z,0
2017-12-02T00:06:06.778Z,0
2017-12-02T00:07:06.549Z,0
2017-12-02T00:08:07.069Z,0
2017-12-02T00:09:06.576Z,0
2017-12-02T00:10:06.854Z,0
2017-12-02T00:11:06.706Z,0
2017-12-02T00:12:07.123Z,0
2017-12-02T00:13:07.145Z,0
2017-12-02T00:14:07.156Z,0
2017-12-02T00:15:06.656Z,0
2017-12-02T00:16:06.919Z,0
2017-12-02T00:17:06.683Z,0
2017-12-02T00:18:06.976Z,0
2017-12-02T00:19:06.820Z,0
2017-12-02T00:20:06.977Z,0
2017-12-02T00:21:06.783Z,0
2017-12-02T00:22:06.995Z,0
2017-12-02T00:23:07.011Z,0
2017-12-02T00:24:06.792Z,0
2017-12-02T00:25:06.781Z,0
2017-12-02T00:26:06.543Z,0
2017-12-02T00:27:06.812Z,0
2017-12-02T00:28:07.333Z,0
2017-12-02T00:29:07.105Z,0
2017-12-02T00:30:06.847Z,0
2017-12-02T00:31:07.111Z,0
2017-12-02T00:32:06.878Z,0
2017-12-02T00:33:06.634Z,0
2017-12-02T00:34:07.414Z,0
2017-12-02T00:35:07.417Z,0
2017-12-02T00:36:07.480Z,0
2017-12-02T00:37:06.938Z,0
2017-12-02T00:38:06.948Z,0
2017-12-02T00:39:07.218Z,0
2017-12-02T00:40:06.985Z,0
2017-12-02T00:41:06.999Z,0
2017-12-02T00:42:07.258Z,0
2017-12-02T00:43:07.267Z,0
2017-12-02T00:44:07.283Z,0
2017-12-02T00:45:07.551Z,0
2017-12-02T00:46:07.308Z,0
2017-12-02T00:47:07.327Z,0
2017-12-02T00:48:07.608Z,0
2017-12-02T00:49:07.597Z,0
2017-12-02T00:50:07.105Z,0
2017-12-02T00:51:07.681Z,0
2017-12-02T00:52:07.386Z,0
2017-12-02T00:53:07.658Z,0
2017-12-02T00:54:07.409Z,0
2017-12-02T00:55:07.168Z,0
2017-12-02T00:56:07.461Z,0
2017-12-02T00:57:07.196Z,0
2017-12-02T00:58:07.710Z,0
2017-12-02T00:59:07.724Z,0
2017-12-02T01:00:07.238Z,0
2017-12-02T01:01:07.746Z,0
2017-12-02T01:02:07.261Z,0
2017-12-02T01:03:07.783Z,0
2017-12-02T01:04:07.553Z,0
2017-12-02T01:05:07.297Z,0
2017-12-02T01:06:07.562Z,0
2017-12-02T01:07:07.604Z,0
2017-12-02T01:08:07.640Z,0
2017-12-02T01:09:07.860Z,0
2017-12-02T01:10:07.622Z,0
2017-12-02T01:11:07.632Z,0
2017-12-02T01:12:07.393Z,0
2017-12-02T01:13:07.654Z,0
2017-12-02T01:14:07.410Z,0
2017-12-02T01:15:07.930Z,0
2017-12-02T01:16:07.435Z,0
2017-12-02T01:17:07.703Z,0
2017-12-02T01:18:07.718Z,0
2017-12-02T01:19:07.481Z,0
2017-12-02T01:20:06.985Z,0
2017-12-02T01:21:07.756Z,0
2017-12-02T01:22:07.796Z,0
2017-12-02T01:23:07.785Z,0
2017-12-02T01:24:08.053Z,0
2017-12-02T01:25:07.801Z,0
2017-12-02T01:26:08.117Z,0
2017-12-02T01:27:07.578Z,0
2017-12-02T01:28:07.840Z,0
2017-12-02T01:29:07.603Z,0
2017-12-02T01:30:08.125Z,0
2017-12-02T01:31:07.901Z,0
2017-12-02T01:32:07.907Z,0
2017-12-02T01:33:07.653Z,0
2017-12-02T01:34:08.182Z,0
2017-12-02T01:35:07.425Z,0
2017-12-02T01:36:07.690Z,0
2017-12-02T01:37:07.957Z,0
2017-12-02T01:38:07.721Z,0
2017-12-02T01:39:07.981Z,0
2017-12-02T01:40:07.740Z,0
2017-12-02T01:41:08.016Z,0
2017-12-02T01:42:08.019Z,0
2017-12-02T01:43:08.290Z,0
2017-12-02T01:44:08.054Z,0
2017-12-02T01:45:08.307Z,0
2017-12-02T01:46:08.067Z,0
2017-12-02T01:47:08.078Z,0
2017-12-02T01:48:08.346Z,0
2017-12-02T01:49:07.854Z,0
2017-12-02T01:50:08.126Z,0
2017-12-02T01:51:08.387Z,0
2017-12-02T01:52:07.899Z,0
2017-12-02T01:53:07.647Z,0
2017-12-02T01:54:07.916Z,0
2017-12-02T01:55:07.921Z,0
2017-12-02T01:56:08.190Z,0
2017-12-02T01:57:08.213Z,0
2017-12-02T01:58:07.709Z,0
2017-12-02T01:59:08.535Z,0
2017-12-02T02:00:08.254Z,0
2017-12-02T02:01:08.021Z,0
2017-12-02T02:02:08.529Z,0
2017-12-02T02:03:08.537Z,0
2017-12-02T02:04:08.149Z,0
2017-12-02T02:05:07.573Z,0
2017-12-02T02:06:08.572Z,0
2017-12-02T02:07:08.328Z,0
2017-12-02T02:08:08.350Z,0
2017-12-02T02:09:08.614Z,0
2017-12-02T02:10:08.134Z,0
2017-12-02T02:11:08.133Z,0
2017-12-02T02:12:08.392Z,0
2017-12-02T02:13:07.903Z,0
2017-12-02T02:14:08.725Z,0
2017-12-02T02:15:08.684Z,0
2017-12-02T02:16:08.705Z,0
2017-12-02T02:17:08.457Z,0
2017-12-02T02:18:08.722Z,0
2017-12-02T02:19:08.735Z,0
2017-12-02T02:20:08.500Z,0
2017-12-02T02:21:08.266Z,0
2017-12-02T02:22:08.523Z,0
2017-12-02T02:23:08.535Z,0
2017-12-02T02:24:08.543Z,0
2017-12-02T02:25:08.627Z,0
2017-12-02T02:26:08.317Z,0
2017-12-02T02:27:08.833Z,0
2017-12-02T02:28:08.610Z,0
2017-12-02T02:29:08.913Z,0
2017-12-02T02:30:08.881Z,0
2017-12-02T02:31:08.638Z,0
2017-12-02T02:32:08.647Z,0
2017-12-02T02:33:08.687Z,0
2017-12-02T02:34:09.000Z,0
2017-12-02T02:35:08.946Z,0
2017-12-02T02:36:08.712Z,0
2017-12-02T02:37:08.730Z,0
2017-12-02T02:38:09.017Z,0
2017-12-02T02:39:09.000Z,0
2017-12-02T02:40:08.514Z,0
2017-12-02T02:41:09.039Z,0
2017-12-02T02:42:09.028Z,0
2017-12-02T02:43:08.530Z,0
2017-12-02T02:44:08.845Z,0
2017-12-02T02:45:08.817Z,0
2017-12-02T02:46:08.565Z,0
2017-12-02T02:47:08.846Z,0
2017-12-02T02:48:09.105Z,0
2017-12-02T02:49:08.858Z,0
2017-12-02T02:50:08.621Z,0
2017-12-02T02:51:09.135Z,0
2017-12-02T02:52:09.159Z,0
2017-12-02T02:53:09.172Z,0
2017-12-02T02:54:08.980Z,0
2017-12-02T02:55:08.450Z,0
2017-12-02T02:56:08.948Z,0
2017-12-02T02:57:08.721Z,0
2017-12-02T02:58:08.970Z,0
2017-12-02T02:59:09.287Z,0
2017-12-02T03:00:09.247Z,0
2017-12-02T03:01:09.260Z,0
2017-12-02T03:02:08.779Z,0
2017-12-02T03:03:08.783Z,0
2017-12-02T03:04:08.545Z,0
2017-12-02T03:05:08.808Z,0
2017-12-02T03:06:09.075Z,0
2017-12-02T03:07:09.088Z,0
2017-12-02T03:08:08.847Z,0
2017-12-02T03:09:08.611Z,0
2017-12-02T03:10:08.876Z,0
2017-12-02T03:11:09.403Z,0
2017-12-02T03:12:09.410Z,0
2017-12-02T03:13:09.167Z,0
2017-12-02T03:14:09.441Z,0
2017-12-02T03:15:08.684Z,0
2017-12-02T03:16:09.208Z,0
2017-12-02T03:17:08.967Z,0
2017-12-02T03:18:09.279Z,0
2017-12-02T03:19:09.620Z,0
2017-12-02T03:20:09.256Z,0
2017-12-02T03:21:09.265Z,0
2017-12-02T03:22:09.027Z,0
2017-12-02T03:23:09.043Z,0
2017-12-02T03:24:09.551Z,0
2017-12-02T03:25:09.331Z,0
2017-12-02T03:26:09.579Z,0
2017-12-02T03:27:09.085Z,0
2017-12-02T03:28:09.110Z,0
2017-12-02T03:29:09.615Z,0
2017-12-02T03:30:09.412Z,0
2017-12-02T03:31:09.669Z,0
2017-12-02T03:32:09.653Z,0
2017-12-02T03:33:09.417Z,0
2017-12-02T03:34:09.688Z,0
2017-12-02T03:35:09.446Z,0
2017-12-02T03:36:09.205Z,0
2017-12-02T03:37:09.519Z,0
2017-12-02T03:38:09.501Z,0
2017-12-02T03:39:09.493Z,0
2017-12-02T03:40:09.507Z,0
2017-12-02T03:41:09.269Z,0
2017-12-02T03:42:09.291Z,0
2017-12-02T03:43:09.799Z,0
2017-12-02T03:44:09.059Z,0
2017-12-02T03:45:09.322Z,0
2017-12-02T03:46:09.836Z,0
2017-12-02T03:47:09.606Z,0
2017-12-02T03:48:09.919Z,0
2017-12-02T03:49:09.617Z,0
2017-12-02T03:50:09.373Z,0
2017-12-02T03:51:09.886Z,0
2017-12-02T03:52:09.713Z,0
2017-12-02T03:53:09.911Z,0
2017-12-02T03:54:09.168Z,0
2017-12-02T03:55:09.182Z,0
2017-12-02T03:56:09.950Z,0
2017-12-02T03:57:09.715Z,0
2017-12-02T03:58:09.739Z,0
2017-12-02T03:59:09.745Z,0
2017-12-02T04:00:09.245Z,0
2017-12-02T04:01:10.018Z,0
2017-12-02T04:02:10.040Z,0
2017-12-02T04:03:09.538Z,0
2017-12-02T04:04:10.053Z,0
2017-12-02T04:05:09.816Z,0
2017-12-02T04:06:09.575Z,0
2017-12-02T04:07:09.589Z,0
2017-12-02T04:08:09.914Z,0
2017-12-02T04:09:09.619Z,0
2017-12-02T04:10:09.627Z,0
2017-12-02T04:11:09.643Z,0
2017-12-02T04:12:10.161Z,0
2017-12-02T04:13:09.691Z,0
2017-12-02T04:14:09.938Z,0
2017-12-02T04:15:09.434Z,0
2017-12-02T04:16:09.704Z,0
2017-12-02T04:17:09.964Z,0
2017-12-02T04:18:10.239Z,0
2017-12-02T04:19:09.990Z,0
2017-12-02T04:20:10.013Z,0
2017-12-02T04:21:09.506Z,0
2017-12-02T04:22:09.777Z,0
2017-12-02T04:23:10.308Z,0
2017-12-02T04:24:10.047Z,0
2017-12-02T04:25:09.560Z,0
2017-12-02T04:26:10.080Z,0
2017-12-02T04:27:10.395Z,0
2017-12-02T04:28:10.117Z,0
2017-12-02T04:29:10.129Z,0
2017-12-02T04:30:10.125Z,0
2017-12-02T04:31:10.143Z,0
2017-12-02T04:32:10.410Z,0
2017-12-02T04:33:09.923Z,0
2017-12-02T04:34:10.430Z,0
2017-12-02T04:35:10.445Z,0
2017-12-02T04:36:10.244Z,0
2017-12-02T04:37:10.220Z,0
2017-12-02T04:38:10.235Z,0
2017-12-02T04:39:10.500Z,0
2017-12-02T04:40:09.998Z,0
2017-12-02T04:41:09.754Z,0
2017-12-02T04:42:09.820Z,0
2017-12-02T04:43:10.290Z,0
2017-12-02T04:44:10.309Z,0
2017-12-02T04:45:10.058Z,0
2017-12-02T04:46:10.073Z,0
2017-12-02T04:47:10.599Z,0
2017-12-02T04:48:10.597Z,0
2017-12-02T04:49:10.620Z,0
2017-12-02T04:50:10.388Z,0
2017-12-02T04:51:10.141Z,0
2017-12-02T04:52:10.391Z,0
2017-12-02T04:53:10.151Z,0
2017-12-02T04:54:10.689Z,0
2017-12-02T04:55:09.923Z,0
2017-12-02T04:56:10.195Z,0
2017-12-02T04:57:10.742Z,0
2017-12-02T04:58:10.474Z,0
2017-12-02T04:59:10.249Z,0
2017-12-02T05:00:10.755Z,0
2017-12-02T05:01:10.823Z,0
2017-12-02T05:02:10.521Z,0
2017-12-02T05:03:10.793Z,0
2017-12-02T05:04:10.555Z,0
2017-12-02T05:05:10.299Z,0
2017-12-02T05:06:10.313Z,0
2017-12-02T05:07:10.075Z,0
2017-12-02T05:08:10.609Z,0
2017-12-02T05:09:10.854Z,0
2017-12-02T05:10:10.369Z,0
2017-12-02T05:11:10.645Z,0
2017-12-02T05:12:10.901Z,0
2017-12-02T05:13:10.663Z,0
2017-12-02T05:14:10.423Z,0
2017-12-02T05:15:10.945Z,0
2017-12-02T05:16:10.944Z,0
2017-12-02T05:17:10.708Z,0
2017-12-02T05:18:11.054Z,0
2017-12-02T05:19:10.732Z,0
2017-12-02T05:20:11.001Z,0
2017-12-02T05:21:11.006Z,0
2017-12-02T05:22:10.789Z,0
2017-12-02T05:23:10.024Z,0
2017-12-02T05:24:10.279Z,0
2017-12-02T05:25:10.548Z,0
2017-12-02T05:26:10.567Z,0
2017-12-02T05:27:10.571Z,0
2017-12-02T05:28:10.367Z,0
2017-12-02T05:29:11.107Z,0
2017-12-02T05:30:10.360Z,0
2017-12-02T05:31:10.623Z,0
2017-12-02T05:32:10.919Z,0
2017-12-02T05:33:10.698Z,0
2017-12-02T05:34:10.915Z,0
2017-12-02T05:35:11.192Z,0
2017-12-02T05:36:11.194Z,0
2017-12-02T05:37:10.702Z,0
2017-12-02T05:38:11.259Z,0
2017-12-02T05:39:11.240Z,0
2017-12-02T05:40:10.996Z,0
2017-12-02T05:41:10.751Z,0
2017-12-02T05:42:11.301Z,0
2017-12-02T05:43:11.283Z,0
2017-12-02T05:44:11.043Z,0
2017-12-02T05:45:10.544Z,0
2017-12-02T05:46:10.804Z,0
2017-12-02T05:47:11.320Z,0
2017-12-02T05:48:10.830Z,0
2017-12-02T05:49:11.353Z,0
2017-12-02T05:50:11.116Z,0
2017-12-02T05:51:10.916Z,0
2017-12-02T05:52:10.626Z,0
2017-12-02T05:53:10.889Z,0
2017-12-02T05:54:11.177Z,0
2017-12-02T05:55:10.917Z,0
2017-12-02T05:56:11.186Z,0
2017-12-02T05:57:11.441Z,0
2017-12-02T05:58:11.205Z,0
2017-12-02T05:59:11.217Z,0
2017-12-02T06:00:11.244Z,0
2017-12-02T06:01:11.238Z,0
2017-12-02T06:02:11.256Z,0
2017-12-02T06:03:11.269Z,0
2017-12-02T06:04:11.281Z,0
2017-12-02T06:05:11.297Z,0
2017-12-02T06:06:11.309Z,0
2017-12-02T06:07:11.111Z,0
2017-12-02T06:08:11.072Z,0
2017-12-02T06:09:11.603Z,0
2017-12-02T06:10:11.612Z,0
2017-12-02T06:11:11.679Z,0
2017-12-02T06:12:11.387Z,0
2017-12-02T06:13:11.395Z,0
2017-12-02T06:14:11.406Z,0
2017-12-02T06:15:11.660Z,0
2017-12-02T06:16:11.680Z,0
2017-12-02T06:17:11.690Z,0
2017-12-02T06:18:11.192Z,0
2017-12-02T06:19:11.201Z,0
2017-12-02T06:20:11.723Z,0
2017-12-02T06:21:11.235Z,0
2017-12-02T06:22:11.492Z,0
2017-12-02T06:23:11.505Z,0
2017-12-02T06:24:11.844Z,0
2017-12-02T06:25:11.781Z,0
2017-12-02T06:26:11.549Z,0
2017-12-02T06:27:11.556Z,0
2017-12-02T06:28:11.567Z,0
2017-12-02T06:29:11.852Z,0
2017-12-02T06:30:11.848Z,0
2017-12-02T06:31:11.890Z,0
2017-12-02T06:32:11.866Z,0
2017-12-02T06:33:11.628Z,0
2017-12-02T06:34:11.634Z,0
2017-12-02T06:35:11.658Z,0
2017-12-02T06:36:11.668Z,0
2017-12-02T06:37:11.420Z,0
2017-12-02T06:38:11.939Z,0
2017-12-02T06:39:11.948Z,0
2017-12-02T06:40:11.505Z,0
2017-12-02T06:41:11.976Z,0
2017-12-02T06:42:11.432Z,0
2017-12-02T06:43:12.010Z,5
2017-12-02T06:44:11.761Z,5
2017-12-02T06:45:11.266Z,5
2017-12-02T06:46:11.283Z,5
2017-12-02T06:47:12.053Z,5
2017-12-02T06:48:11.550Z,5
2017-12-02T06:49:12.075Z,5
2017-12-02T06:50:12.076Z,5
2017-12-02T06:51:11.858Z,10
2017-12-02T06:52:12.101Z,10
2017-12-02T06:53:11.875Z,10
2017-12-02T06:54:12.131Z,10
2017-12-02T06:55:11.881Z,10
2017-12-02T06:56:11.689Z,15
2017-12-02T06:57:11.671Z,15
2017-12-02T06:58:11.925Z,15
2017-12-02T06:59:11.748Z,15
2017-12-02T07:00:11.942Z,15
2017-12-02T07:01:12.203Z,15
2017-12-02T07:02:11.975Z,20
2017-12-02T07:03:12.230Z,20
2017-12-02T07:04:11.738Z,20
2017-12-02T07:05:11.749Z,20
2017-12-02T07:06:12.275Z,25
2017-12-02T07:07:12.309Z,25
2017-12-02T07:08:12.288Z,25
2017-12-02T07:09:12.302Z,30
2017-12-02T07:10:11.808Z,30
2017-12-02T07:11:11.943Z,30
2017-12-02T07:12:12.089Z,35
2017-12-02T07:13:12.095Z,35
2017-12-02T07:14:11.864Z,35
2017-12-02T07:15:12.115Z,35
2017-12-02T07:16:12.128Z,40
2017-12-02T07:17:12.388Z,40
2017-12-02T07:18:11.702Z,40
2017-12-02T07:19:12.162Z,45
2017-12-02T07:20:12.177Z,45
2017-12-02T07:21:12.448Z,45
2017-12-02T07:22:12.209Z,45
2017-12-02T07:23:12.207Z,45
2017-12-02T07:24:12.475Z,45
2017-12-02T07:25:12.234Z,50
2017-12-02T07:26:12.130Z,50
2017-12-02T07:27:12.268Z,50
2017-12-02T07:28:12.272Z,50
2017-12-02T07:29:12.026Z,55
2017-12-02T07:30:12.560Z,55
2017-12-02T07:31:12.382Z,55
2017-12-02T07:32:12.318Z,60
2017-12-02T07:33:12.637Z,60
2017-12-02T07:34:12.593Z,60
2017-12-02T07:35:11.847Z,60
2017-12-02T07:36:12.112Z,65
2017-12-02T07:37:12.379Z,70
2017-12-02T07:38:12.388Z,70
2017-12-02T07:39:12.397Z,80
2017-12-02T07:40:12.672Z,80
2017-12-02T07:41:12.173Z,75
2017-12-02T07:42:12.438Z,75
2017-12-02T07:43:12.704Z,80
2017-12-02T07:44:12.762Z,80
2017-12-02T07:45:12.220Z,80
2017-12-02T07:46:12.738Z,80
2017-12-02T07:47:11.739Z,80
2017-12-02T07:48:12.808Z,80
2017-12-02T07:49:12.522Z,80
2017-12-02T07:50:12.783Z,85
2017-12-02T07:51:12.036Z,85
2017-12-02T07:52:11.795Z,85
2017-12-02T07:53:12.825Z,90
2017-12-02T07:54:12.910Z,95
2017-12-02T07:55:12.841Z,110
2017-12-02T07:56:12.848Z,115
2017-12-02T07:57:12.618Z,120
2017-12-02T07:58:12.628Z,120
2017-12-02T07:59:12.802Z,110
2017-12-02T08:00:12.400Z,115
2017-12-02T08:01:12.422Z,120
2017-12-02T08:02:12.676Z,120
2017-12-02T08:03:12.739Z,120
2017-12-02T08:04:12.698Z,125
2017-12-02T08:05:12.965Z,125
2017-12-02T08:06:12.477Z,125
2017-12-02T08:07:12.991Z,130
2017-12-02T08:08:13.008Z,130
2017-12-02T08:09:12.759Z,135
2017-12-02T08:10:13.029Z,135
2017-12-02T08:11:12.539Z,140
2017-12-02T08:12:12.548Z,135
2017-12-02T08:13:13.079Z,125
2017-12-02T08:14:12.635Z,115
2017-12-02T08:15:13.088Z,125
2017-12-02T08:16:12.868Z,115
2017-12-02T08:17:13.152Z,120
2017-12-02T08:18:12.872Z,125
2017-12-02T08:19:13.137Z,145
2017-12-02T08:20:13.192Z,145
2017-12-02T08:21:13.163Z,140
2017-12-02T08:22:13.181Z,155
2017-12-02T08:23:12.780Z,145
2017-12-02T08:24:13.204Z,150
2017-12-02T08:25:13.225Z,155
2017-12-02T08:26:13.285Z,160
2017-12-02T08:27:12.980Z,165
2017-12-02T08:28:13.002Z,165
2017-12-02T08:29:13.013Z,165
2017-12-02T08:30:12.769Z,165
2017-12-02T08:31:12.778Z,170
2017-12-02T08:32:12.798Z,170
2017-12-02T08:33:13.056Z,175
2017-12-02T08:34:13.071Z,175
2017-12-02T08:35:13.147Z,175
2017-12-02T08:36:13.361Z,180
2017-12-02T08:37:12.877Z,180
2017-12-02T08:38:13.132Z,185
2017-12-02T08:39:13.128Z,185
2017-12-02T08:40:13.218Z,190
2017-12-02T08:41:13.159Z,190
2017-12-02T08:42:12.918Z,190
2017-12-02T08:43:13.440Z,195
2017-12-02T08:44:13.200Z,200
2017-12-02T08:45:13.468Z,200
2017-12-02T08:46:13.474Z,200
2017-12-02T08:47:12.989Z,205
2017-12-02T08:48:13.248Z,205
2017-12-02T08:49:13.279Z,210
2017-12-02T08:50:13.589Z,210
2017-12-02T08:51:13.040Z,210
2017-12-02T08:52:12.799Z,210
2017-12-02T08:53:13.060Z,210
2017-12-02T08:54:13.328Z,215
2017-12-02T08:55:13.693Z,195
2017-12-02T08:56:13.355Z,210
2017-12-02T08:57:13.361Z,210
2017-12-02T08:58:13.383Z,190
2017-12-02T08:59:13.409Z,175
2017-12-02T09:00:13.657Z,170
2017-12-02T09:01:13.681Z,175
2017-12-02T09:02:13.689Z,190
2017-12-02T09:03:13.445Z,190
2017-12-02T09:04:13.715Z,180
2017-12-02T09:05:13.528Z,180
2017-12-02T09:06:13.488Z,185
2017-12-02T09:07:13.758Z,200
2017-12-02T09:08:13.784Z,210
2017-12-02T09:09:13.776Z,215
2017-12-02T09:10:13.037Z,215
2017-12-02T09:11:13.298Z,230
2017-12-02T09:12:13.564Z,215
2017-12-02T09:13:13.841Z,230
2017-12-02T09:14:13.344Z,290
2017-12-02T09:15:13.108Z,245
2017-12-02T09:16:13.368Z,210
2017-12-02T09:17:13.884Z,195
2017-12-02T09:18:13.433Z,180
2017-12-02T09:19:13.412Z,175
2017-12-02T09:20:13.675Z,180
2017-12-02T09:21:13.946Z,185
2017-12-02T09:22:13.957Z,195
2017-12-02T09:23:13.461Z,195
2017-12-02T09:24:13.730Z,195
2017-12-02T09:25:13.762Z,220
2017-12-02T09:26:13.499Z,265
2017-12-02T09:27:13.583Z,270
2017-12-02T09:28:13.528Z,275
2017-12-02T09:29:14.510Z,280
2017-12-02T09:30:13.808Z,270
2017-12-02T09:31:14.073Z,265
2017-12-02T09:32:13.839Z,275
2017-12-02T09:33:13.851Z,265
2017-12-02T09:34:14.129Z,250
2017-12-02T09:35:13.884Z,245
2017-12-02T09:36:13.641Z,220
2017-12-02T09:37:13.906Z,200
2017-12-02T09:38:13.926Z,195
2017-12-02T09:39:14.189Z,190
2017-12-02T09:40:14.214Z,200
2017-12-02T09:41:13.458Z,225
2017-12-02T09:42:13.777Z,245
2017-12-02T09:43:13.992Z,260
2017-12-02T09:44:14.018Z,285
2017-12-02T09:45:14.115Z,330
2017-12-02T09:46:14.290Z,320
2017-12-02T09:47:14.294Z,330
2017-12-02T09:48:14.313Z,395
2017-12-02T09:49:14.097Z,375
2017-12-02T09:50:14.088Z,350
2017-12-02T09:51:14.364Z,335
2017-12-02T09:52:13.877Z,310
2017-12-02T09:53:14.389Z,285
2017-12-02T09:54:14.152Z,270
2017-12-02T09:55:14.162Z,270
2017-12-02T09:56:14.199Z,295
2017-12-02T09:57:14.255Z,385
2017-12-02T09:58:14.477Z,340
2017-12-02T09:59:14.477Z,315
2017-12-02T10:00:14.235Z,280
2017-12-02T10:01:13.998Z,280
2017-12-02T10:02:14.110Z,290
2017-12-02T10:03:14.036Z,270
2017-12-02T10:04:14.066Z,750
2017-12-02T10:05:14.055Z,355
2017-12-02T10:06:14.072Z,285
2017-12-02T10:07:14.602Z,365
2017-12-02T10:08:14.100Z,415
2017-12-02T10:09:13.871Z,275
2017-12-02T10:10:14.423Z,290
2017-12-02T10:11:14.681Z,315
2017-12-02T10:12:14.484Z,1210
2017-12-02T10:13:14.690Z,445
2017-12-02T10:14:14.194Z,340
2017-12-02T10:15:14.209Z,275
2017-12-02T10:16:14.724Z,245
2017-12-02T10:17:14.244Z,840
2017-12-02T10:18:14.536Z,420
2017-12-02T10:19:14.550Z,395
2017-12-02T10:20:14.542Z,340
2017-12-02T10:21:14.628Z,295
2017-12-02T10:22:14.065Z,230
2017-12-02T10:23:14.604Z,210
2017-12-02T10:24:14.348Z,195
2017-12-02T10:25:14.873Z,195
2017-12-02T10:26:14.381Z,215
2017-12-02T10:27:14.899Z,215
2017-12-02T10:28:14.477Z,225
2017-12-02T10:29:14.928Z,270
2017-12-02T10:30:14.439Z,410
2017-12-02T10:31:14.961Z,380
2017-12-02T10:32:15.028Z,265
2017-12-02T10:33:14.739Z,275
2017-12-02T10:34:14.751Z,445
2017-12-02T10:35:14.784Z,270
2017-12-02T10:36:14.791Z,220
2017-12-02T10:37:15.057Z,210
2017-12-02T10:38:14.309Z,190
2017-12-02T10:39:14.832Z,165
2017-12-02T10:40:14.850Z,155
2017-12-02T10:41:14.868Z,150
2017-12-02T10:42:14.620Z,135
2017-12-02T10:43:15.207Z,140
2017-12-02T10:44:15.165Z,155
2017-12-02T10:45:14.918Z,155
2017-12-02T10:46:14.688Z,140
2017-12-02T10:47:14.445Z,135
2017-12-02T10:48:14.454Z,135
2017-12-02T10:49:14.980Z,130
2017-12-02T10:50:14.996Z,135
2017-12-02T10:51:15.258Z,145
2017-12-02T10:52:15.020Z,155
2017-12-02T10:53:14.789Z,150
2017-12-02T10:54:15.049Z,130
2017-12-02T10:55:15.065Z,135
2017-12-02T10:56:15.324Z,170
2017-12-02T10:57:15.389Z,180
2017-12-02T10:58:15.156Z,180
2017-12-02T10:59:15.118Z,180
2017-12-02T11:00:14.628Z,175
2017-12-02T11:01:15.139Z,170
2017-12-02T11:02:14.906Z,175
2017-12-02T11:03:15.436Z,180
2017-12-02T11:04:15.191Z,185
2017-12-02T11:05:15.451Z,190
2017-12-02T11:06:15.229Z,185
2017-12-02T11:07:15.232Z,180
2017-12-02T11:08:15.014Z,165
2017-12-02T11:09:15.264Z,160
2017-12-02T11:10:15.528Z,155
2017-12-02T11:11:15.290Z,165
2017-12-02T11:12:15.358Z,185
2017-12-02T11:13:15.369Z,225
2017-12-02T11:14:15.591Z,220
2017-12-02T11:15:15.349Z,185
2017-12-02T11:16:15.379Z,155
2017-12-02T11:17:15.387Z,150
2017-12-02T11:18:15.391Z,155
2017-12-02T11:19:15.408Z,145
2017-12-02T11:20:15.169Z,140
2017-12-02T11:21:15.444Z,130
2017-12-02T11:22:15.721Z,125
2017-12-02T11:23:15.461Z,115
2017-12-02T11:24:15.478Z,105
2017-12-02T11:25:15.491Z,105
2017-12-02T11:26:15.511Z,110
2017-12-02T11:27:15.767Z,105
2017-12-02T11:28:15.784Z,95
2017-12-02T11:29:15.807Z,95
2017-12-02T11:30:15.307Z,105
2017-12-02T11:31:15.324Z,125
2017-12-02T11:32:15.390Z,135
2017-12-02T11:33:15.635Z,155
2017-12-02T11:34:15.618Z,180
2017-12-02T11:35:15.890Z,200
2017-12-02T11:36:15.900Z,190
2017-12-02T11:37:15.659Z,180
2017-12-02T11:38:15.676Z,175
2017-12-02T11:39:15.693Z,175
2017-12-02T11:40:15.965Z,165
2017-12-02T11:41:15.741Z,155
2017-12-02T11:42:15.733Z,150
2017-12-02T11:43:15.749Z,150
2017-12-02T11:44:15.798Z,165
2017-12-02T11:45:15.779Z,220
2017-12-02T11:46:15.806Z,260
2017-12-02T11:47:15.801Z,250
2017-12-02T11:48:15.896Z,225
2017-12-02T11:49:15.835Z,210
2017-12-02T11:50:15.598Z,200
2017-12-02T11:51:15.859Z,190
2017-12-02T11:52:15.885Z,175
2017-12-02T11:53:15.445Z,175
2017-12-02T11:54:15.655Z,190
2017-12-02T11:55:15.677Z,210
2017-12-02T11:56:15.434Z,230
2017-12-02T11:57:15.698Z,225
2017-12-02T11:58:15.980Z,215
2017-12-02T11:59:16.244Z,205
2017-12-02T12:00:15.992Z,195
2017-12-02T12:01:16.006Z,160
2017-12-02T12:02:15.791Z,145
2017-12-02T12:03:15.785Z,130
2017-12-02T12:04:16.306Z,125
2017-12-02T12:05:16.065Z,125
2017-12-02T12:06:16.074Z,120
2017-12-02T12:07:16.091Z,120
2017-12-02T12:08:16.159Z,125
2017-12-02T12:09:15.867Z,135
2017-12-02T12:10:16.134Z,130
2017-12-02T12:11:16.406Z,135
2017-12-02T12:12:16.417Z,145
2017-12-02T12:13:15.933Z,165
2017-12-02T12:14:16.191Z,175
2017-12-02T12:15:16.230Z,195
2017-12-02T12:16:15.973Z,200
2017-12-02T12:17:15.986Z,180
2017-12-02T12:18:16.501Z,135
2017-12-02T12:19:16.365Z,105
2017-12-02T12:20:16.030Z,90
2017-12-02T12:21:16.565Z,105
2017-12-02T12:22:16.562Z,135
2017-12-02T12:23:16.068Z,145
2017-12-02T12:24:16.395Z,160
2017-12-02T12:25:16.355Z,175
2017-12-02T12:26:16.109Z,190
2017-12-02T12:27:16.385Z,215
2017-12-02T12:28:16.396Z,185
2017-12-02T12:29:16.403Z,155
2017-12-02T12:30:16.684Z,130
2017-12-02T12:31:16.197Z,110
2017-12-02T12:32:16.704Z,105
2017-12-02T12:33:16.469Z,105
2017-12-02T12:34:16.486Z,105
2017-12-02T12:35:16.497Z,105
2017-12-02T12:36:16.772Z,105
2017-12-02T12:37:16.528Z,105
2017-12-02T12:38:16.284Z,110
2017-12-02T12:39:16.552Z,115
2017-12-02T12:40:16.575Z,135
2017-12-02T12:41:16.585Z,155
2017-12-02T12:42:16.645Z,160
2017-12-02T12:43:16.609Z,150
2017-12-02T12:44:16.375Z,145
2017-12-02T12:45:16.395Z,130
2017-12-02T12:46:16.660Z,115
2017-12-02T12:47:16.407Z,110
2017-12-02T12:48:16.174Z,105
2017-12-02T12:49:16.249Z,110
2017-12-02T12:50:16.713Z,115
2017-12-02T12:51:16.467Z,115
2017-12-02T12:52:16.226Z,115
2017-12-02T12:53:16.497Z,115
2017-12-02T12:54:16.758Z,110
2017-12-02T12:55:17.032Z,100
2017-12-02T12:56:16.538Z,95
2017-12-02T12:57:16.623Z,90
2017-12-02T12:58:16.560Z,90
2017-12-02T12:59:17.084Z,85
2017-12-02T13:00:16.846Z,80
2017-12-02T13:01:17.118Z,80
2017-12-02T13:02:16.873Z,75
2017-12-02T13:03:16.635Z,75
2017-12-02T13:04:16.395Z,65
2017-12-02T13:05:16.915Z,65
2017-12-02T13:06:16.929Z,60
2017-12-02T13:07:16.692Z,60
2017-12-02T13:08:16.703Z,65
2017-12-02T13:09:16.715Z,65
2017-12-02T13:10:16.980Z,65
2017-12-02T13:11:17.243Z,65
2017-12-02T13:12:17.065Z,65
2017-12-02T13:13:17.283Z,70
2017-12-02T13:14:16.536Z,70
2017-12-02T13:15:17.309Z,70
2017-12-02T13:16:17.066Z,70
2017-12-02T13:17:16.874Z,70
2017-12-02T13:18:17.352Z,70
2017-12-02T13:19:17.357Z,75
2017-12-02T13:20:16.867Z,75
2017-12-02T13:21:17.439Z,75
2017-12-02T13:22:16.886Z,75
2017-12-02T13:23:17.421Z,75
2017-12-02T13:24:17.183Z,75
2017-12-02T13:25:16.674Z,70
2017-12-02T13:26:17.198Z,70
2017-12-02T13:27:17.005Z,75
2017-12-02T13:28:17.475Z,75
2017-12-02T13:29:17.500Z,80
2017-12-02T13:30:17.497Z,90
2017-12-02T13:31:17.514Z,100
2017-12-02T13:32:17.315Z,110
2017-12-02T13:33:17.541Z,105
2017-12-02T13:34:17.324Z,105
2017-12-02T13:35:17.322Z,100
2017-12-02T13:36:17.597Z,95
2017-12-02T13:37:17.090Z,90
2017-12-02T13:38:17.358Z,90
2017-12-02T13:39:17.120Z,85
2017-12-02T13:40:17.382Z,80
2017-12-02T13:41:16.895Z,75
2017-12-02T13:42:17.668Z,75
2017-12-02T13:43:17.228Z,75
2017-12-02T13:44:17.442Z,75
2017-12-02T13:45:17.448Z,75
2017-12-02T13:46:17.210Z,65
2017-12-02T13:47:17.241Z,65
2017-12-02T13:48:17.238Z,65
2017-12-02T13:49:17.252Z,65
2017-12-02T13:50:17.800Z,65
2017-12-02T13:51:17.304Z,65
2017-12-02T13:52:17.541Z,60
2017-12-02T13:53:17.310Z,55
2017-12-02T13:54:17.574Z,55
2017-12-02T13:55:17.850Z,55
2017-12-02T13:56:17.345Z,50
2017-12-02T13:57:17.618Z,50
2017-12-02T13:58:17.894Z,45
2017-12-02T13:59:17.895Z,45
2017-12-02T14:00:17.400Z,40
2017-12-02T14:01:17.664Z,40
2017-12-02T14:02:17.483Z,40
2017-12-02T14:03:17.943Z,35
2017-12-02T14:04:17.965Z,35
2017-12-02T14:05:17.714Z,35
2017-12-02T14:06:17.981Z,35
2017-12-02T14:07:17.493Z,35
2017-12-02T14:08:18.020Z,35
2017-12-02T14:09:18.019Z,30
2017-12-02T14:10:17.784Z,30
2017-12-02T14:11:17.795Z,30
2017-12-02T14:12:17.560Z,30
2017-12-02T14:13:18.075Z,35
2017-12-02T14:14:17.836Z,35
2017-12-02T14:15:17.857Z,35
2017-12-02T14:16:17.620Z,35
2017-12-02T14:17:17.617Z,35
2017-12-02T14:18:18.133Z,35
2017-12-02T14:19:17.647Z,35